sensor_id;sensor_type;location;lat;lon;timestamp;temperature;humidity
74359;DHT22;62792;46.236;6.040;2024-01-10T00:02:35;19.40;39.70
74359;DHT22;62792;46.236;6.040;2024-01-10T00:07:38;19.50;39.70
74359;DHT22;62792;46.236;6.040;2024-01-10T00:12:41;19.40;39.70
74359;DHT22;62792;46.236;6.040;2024-01-10T00:17:47;19.50;39.70
74359;DHT22;62792;46.236;6.040;2024-01-10T00:22:50;19.50;39.70
74359;DHT22;62792;46.236;6.040;2024-01-10T00:27:53;19.40;39.60
74359;DHT22;62792;46.236;6.040;2024-01-10T00:32:57;19.40;39.80
74359;DHT22;62792;46.236;6.040;2024-01-10T00:38:00;19.30;39.80
74359;DHT22;62792;46.236;6.040;2024-01-10T00:43:03;19.20;40.10
74359;DHT22;62792;46.236;6.040;2024-01-10T00:48:08;19.30;39.50
74359;DHT22;62792;46.236;6.040;2024-01-10T00:53:11;19.30;39.60
74359;DHT22;62792;46.236;6.040;2024-01-10T00:58:15;19.50;39.70
74359;DHT22;62792;46.236;6.040;2024-01-10T01:03:19;19.50;39.70
74359;DHT22;62792;46.236;6.040;2024-01-10T01:08:22;19.40;39.80
74359;DHT22;62792;46.236;6.040;2024-01-10T01:13:26;19.40;39.70
74359;DHT22;62792;46.236;6.040;2024-01-10T01:18:31;19.30;39.80
74359;DHT22;62792;46.236;6.040;2024-01-10T01:23:35;19.20;39.70
74359;DHT22;62792;46.236;6.040;2024-01-10T01:28:43;19.20;40.10
74359;DHT22;62792;46.236;6.040;2024-01-10T01:33:48;19.30;39.90
74359;DHT22;62792;46.236;6.040;2024-01-10T01:38:51;19.40;39.70
74359;DHT22;62792;46.236;6.040;2024-01-10T01:43:54;19.40;39.70
74359;DHT22;62792;46.236;6.040;2024-01-10T01:48:58;19.50;39.70
74359;DHT22;62792;46.236;6.040;2024-01-10T01:54:01;19.40;39.60
74359;DHT22;62792;46.236;6.040;2024-01-10T01:59:06;19.40;39.80
74359;DHT22;62792;46.236;6.040;2024-01-10T02:04:10;19.20;39.90
74359;DHT22;62792;46.236;6.040;2024-01-10T02:09:14;19.20;39.90
74359;DHT22;62792;46.236;6.040;2024-01-10T02:14:17;19.20;39.70
74359;DHT22;62792;46.236;6.040;2024-01-10T02:19:23;19.20;40.00
74359;DHT22;62792;46.236;6.040;2024-01-10T02:24:29;19.30;39.80
74359;DHT22;62792;46.236;6.040;2024-01-10T02:29:34;19.40;39.90
74359;DHT22;62792;46.236;6.040;2024-01-10T02:34:38;19.40;39.60
74359;DHT22;62792;46.236;6.040;2024-01-10T02:39:41;19.40;39.70
74359;DHT22;62792;46.236;6.040;2024-01-10T02:44:45;19.30;39.80
74359;DHT22;62792;46.236;6.040;2024-01-10T02:49:48;19.20;40.00
74359;DHT22;62792;46.236;6.040;2024-01-10T02:54:51;19.20;39.80
74359;DHT22;62792;46.236;6.040;2024-01-10T02:59:56;19.20;40.10
74359;DHT22;62792;46.236;6.040;2024-01-10T03:04:59;19.20;39.90
74359;DHT22;62792;46.236;6.040;2024-01-10T03:10:03;19.20;39.80
74359;DHT22;62792;46.236;6.040;2024-01-10T03:15:10;19.30;39.90
74359;DHT22;62792;46.236;6.040;2024-01-10T03:20:13;19.20;39.80
74359;DHT22;62792;46.236;6.040;2024-01-10T03:25:16;19.20;39.80
74359;DHT22;62792;46.236;6.040;2024-01-10T03:30:20;19.10;40.00
74359;DHT22;62792;46.236;6.040;2024-01-10T03:35:26;19.20;40.00
74359;DHT22;62792;46.236;6.040;2024-01-10T03:40:29;19.10;40.00
74359;DHT22;62792;46.236;6.040;2024-01-10T03:45:33;19.10;40.00
74359;DHT22;62792;46.236;6.040;2024-01-10T03:50:36;19.20;39.70
74359;DHT22;62792;46.236;6.040;2024-01-10T03:55:39;19.30;39.70
74359;DHT22;62792;46.236;6.040;2024-01-10T04:00:43;19.30;39.60
74359;DHT22;62792;46.236;6.040;2024-01-10T04:05:46;19.20;39.70
74359;DHT22;62792;46.236;6.040;2024-01-10T04:10:50;19.20;39.80
74359;DHT22;62792;46.236;6.040;2024-01-10T04:15:54;19.10;39.90
74359;DHT22;62792;46.236;6.040;2024-01-10T04:20:57;19.10;40.00
74359;DHT22;62792;46.236;6.040;2024-01-10T04:26:00;19.00;40.10
74359;DHT22;62792;46.236;6.040;2024-01-10T04:31:06;19.10;39.90
74359;DHT22;62792;46.236;6.040;2024-01-10T04:36:09;19.10;40.00
74359;DHT22;62792;46.236;6.040;2024-01-10T04:41:12;19.10;39.80
74359;DHT22;62792;46.236;6.040;2024-01-10T04:46:16;19.30;39.90
74359;DHT22;62792;46.236;6.040;2024-01-10T04:51:19;19.20;39.80
74359;DHT22;62792;46.236;6.040;2024-01-10T04:56:22;19.10;39.90
74359;DHT22;62792;46.236;6.040;2024-01-10T05:01:26;19.10;40.00
74359;DHT22;62792;46.236;6.040;2024-01-10T05:06:30;19.10;40.00
74359;DHT22;62792;46.236;6.040;2024-01-10T05:11:35;19.10;40.10
74359;DHT22;62792;46.236;6.040;2024-01-10T05:16:41;19.00;39.90
74359;DHT22;62792;46.236;6.040;2024-01-10T05:21:44;19.10;39.90
74359;DHT22;62792;46.236;6.040;2024-01-10T05:26:47;19.30;39.90
74359;DHT22;62792;46.236;6.040;2024-01-10T05:31:54;19.20;39.90
74359;DHT22;62792;46.236;6.040;2024-01-10T05:36:57;19.30;39.80
74359;DHT22;62792;46.236;6.040;2024-01-10T05:42:00;19.50;39.50
74359;DHT22;62792;46.236;6.040;2024-01-10T05:47:05;19.50;39.60
74359;DHT22;62792;46.236;6.040;2024-01-10T05:52:08;19.70;39.30
74359;DHT22;62792;46.236;6.040;2024-01-10T05:57:11;19.80;39.60
74359;DHT22;62792;46.236;6.040;2024-01-10T06:02:16;19.70;39.40
74359;DHT22;62792;46.236;6.040;2024-01-10T06:07:19;19.80;39.40
74359;DHT22;62792;46.236;6.040;2024-01-10T06:12:22;19.70;39.50
74359;DHT22;62792;46.236;6.040;2024-01-10T06:17:26;19.70;39.40
74359;DHT22;62792;46.236;6.040;2024-01-10T06:22:29;19.70;39.50
74359;DHT22;62792;46.236;6.040;2024-01-10T06:27:32;19.70;39.50
74359;DHT22;62792;46.236;6.040;2024-01-10T06:32:36;19.90;39.40
74359;DHT22;62792;46.236;6.040;2024-01-10T06:37:40;19.90;39.30
74359;DHT22;62792;46.236;6.040;2024-01-10T06:42:46;19.80;39.40
74359;DHT22;62792;46.236;6.040;2024-01-10T06:47:50;19.80;39.60
74359;DHT22;62792;46.236;6.040;2024-01-10T06:52:54;19.80;39.60
74359;DHT22;62792;46.236;6.040;2024-01-10T06:57:57;19.80;39.50
74359;DHT22;62792;46.236;6.040;2024-01-10T07:03:02;19.90;39.40
74359;DHT22;62792;46.236;6.040;2024-01-10T07:08:06;20.00;39.40
74359;DHT22;62792;46.236;6.040;2024-01-10T07:13:09;19.90;39.50
74359;DHT22;62792;46.236;6.040;2024-01-10T07:18:13;19.90;39.60
74359;DHT22;62792;46.236;6.040;2024-01-10T07:23:16;19.90;39.50
74359;DHT22;62792;46.236;6.040;2024-01-10T07:28:20;19.90;39.50
74359;DHT22;62792;46.236;6.040;2024-01-10T07:33:24;19.90;39.70
74359;DHT22;62792;46.236;6.040;2024-01-10T07:38:27;19.90;39.60
74359;DHT22;62792;46.236;6.040;2024-01-10T07:43:30;20.00;39.40
74359;DHT22;62792;46.236;6.040;2024-01-10T07:48:34;20.00;39.50
74359;DHT22;62792;46.236;6.040;2024-01-10T07:53:39;20.00;39.60
74359;DHT22;62792;46.236;6.040;2024-01-10T07:58:42;20.00;39.60
74359;DHT22;62792;46.236;6.040;2024-01-10T08:03:46;20.00;39.70
74359;DHT22;62792;46.236;6.040;2024-01-10T08:08:49;20.00;39.60
74359;DHT22;62792;46.236;6.040;2024-01-10T08:13:52;20.00;39.50
74359;DHT22;62792;46.236;6.040;2024-01-10T08:18:57;20.10;39.80
74359;DHT22;62792;46.236;6.040;2024-01-10T08:24:01;20.10;39.60
74359;DHT22;62792;46.236;6.040;2024-01-10T08:29:06;20.10;39.70
74359;DHT22;62792;46.236;6.040;2024-01-10T08:34:10;20.10;39.60
74359;DHT22;62792;46.236;6.040;2024-01-10T08:39:17;20.00;39.80
74359;DHT22;62792;46.236;6.040;2024-01-10T08:44:21;20.10;40.00
74359;DHT22;62792;46.236;6.040;2024-01-10T08:49:25;20.00;39.90
74359;DHT22;62792;46.236;6.040;2024-01-10T08:54:29;20.40;42.40
74359;DHT22;62792;46.236;6.040;2024-01-10T08:59:32;20.50;43.30
74359;DHT22;62792;46.236;6.040;2024-01-10T09:04:37;20.70;43.90
74359;DHT22;62792;46.236;6.040;2024-01-10T09:09:40;20.80;43.90
74359;DHT22;62792;46.236;6.040;2024-01-10T09:14:44;20.90;43.70
74359;DHT22;62792;46.236;6.040;2024-01-10T09:19:48;21.10;44.50
74359;DHT22;62792;46.236;6.040;2024-01-10T09:24:51;21.10;43.10
74359;DHT22;62792;46.236;6.040;2024-01-10T09:29:54;21.00;42.90
74359;DHT22;62792;46.236;6.040;2024-01-10T09:34:58;20.90;43.00
74359;DHT22;62792;46.236;6.040;2024-01-10T09:40:04;21.00;42.30
74359;DHT22;62792;46.236;6.040;2024-01-10T09:45:09;21.00;42.20
74359;DHT22;62792;46.236;6.040;2024-01-10T09:50:15;21.00;42.40
74359;DHT22;62792;46.236;6.040;2024-01-10T09:55:19;21.00;42.10
74359;DHT22;62792;46.236;6.040;2024-01-10T10:00:26;21.00;42.00
74359;DHT22;62792;46.236;6.040;2024-01-10T10:05:31;21.20;42.70
74359;DHT22;62792;46.236;6.040;2024-01-10T10:10:36;21.50;42.30
74359;DHT22;62792;46.236;6.040;2024-01-10T10:15:44;21.30;42.00
74359;DHT22;62792;46.236;6.040;2024-01-10T10:21:07;21.30;42.10
74359;DHT22;62792;46.236;6.040;2024-01-10T10:26:15;21.60;42.00
74359;DHT22;62792;46.236;6.040;2024-01-10T10:31:23;21.70;42.30
74359;DHT22;62792;46.236;6.040;2024-01-10T10:36:29;21.90;42.00
74359;DHT22;62792;46.236;6.040;2024-01-10T10:41:33;21.70;42.20
74359;DHT22;62792;46.236;6.040;2024-01-10T10:46:38;21.90;42.00
74359;DHT22;62792;46.236;6.040;2024-01-10T10:51:43;21.70;42.20
74359;DHT22;62792;46.236;6.040;2024-01-10T10:56:46;21.60;42.00
74359;DHT22;62792;46.236;6.040;2024-01-10T11:01:50;21.60;42.10
74359;DHT22;62792;46.236;6.040;2024-01-10T11:06:55;21.60;42.00
74359;DHT22;62792;46.236;6.040;2024-01-10T11:12:02;21.60;42.00
74359;DHT22;62792;46.236;6.040;2024-01-10T11:17:14;21.50;42.00
74359;DHT22;62792;46.236;6.040;2024-01-10T11:22:36;21.50;41.80
74359;DHT22;62792;46.236;6.040;2024-01-10T11:27:46;21.40;41.70
74359;DHT22;62792;46.236;6.040;2024-01-10T11:38:34;21.50;41.70
74359;DHT22;62792;46.236;6.040;2024-01-10T11:43:41;21.50;41.40
74359;DHT22;62792;46.236;6.040;2024-01-10T11:48:44;21.40;41.50
74359;DHT22;62792;46.236;6.040;2024-01-10T11:53:49;21.40;41.40
74359;DHT22;62792;46.236;6.040;2024-01-10T11:58:54;21.40;41.30
74359;DHT22;62792;46.236;6.040;2024-01-10T12:03:58;21.40;41.30
74359;DHT22;62792;46.236;6.040;2024-01-10T12:09:19;21.40;41.40
74359;DHT22;62792;46.236;6.040;2024-01-10T12:14:22;21.50;41.60
74359;DHT22;62792;46.236;6.040;2024-01-10T12:19:26;21.50;41.60
74359;DHT22;62792;46.236;6.040;2024-01-10T12:24:30;21.60;41.50
74359;DHT22;62792;46.236;6.040;2024-01-10T12:29:33;21.70;41.70
74359;DHT22;62792;46.236;6.040;2024-01-10T12:34:37;21.70;42.10
74359;DHT22;62792;46.236;6.040;2024-01-10T12:39:42;21.80;41.80
74359;DHT22;62792;46.236;6.040;2024-01-10T12:44:47;21.90;41.90
74359;DHT22;62792;46.236;6.040;2024-01-10T12:49:50;22.00;43.40
74359;DHT22;62792;46.236;6.040;2024-01-10T12:54:54;22.10;43.70
74359;DHT22;62792;46.236;6.040;2024-01-10T12:59:57;22.30;44.30
74359;DHT22;62792;46.236;6.040;2024-01-10T13:05:00;22.20;44.80
74359;DHT22;62792;46.236;6.040;2024-01-10T13:10:05;22.30;44.90
74359;DHT22;62792;46.236;6.040;2024-01-10T13:15:08;22.20;44.00
74359;DHT22;62792;46.236;6.040;2024-01-10T13:20:12;22.20;43.10
74359;DHT22;62792;46.236;6.040;2024-01-10T13:25:16;22.10;42.60
74359;DHT22;62792;46.236;6.040;2024-01-10T13:30:19;22.20;42.60
74359;DHT22;62792;46.236;6.040;2024-01-10T13:35:22;22.20;42.50
74359;DHT22;62792;46.236;6.040;2024-01-10T13:40:27;22.20;42.70
74359;DHT22;62792;46.236;6.040;2024-01-10T13:45:31;22.20;42.60
74359;DHT22;62792;46.236;6.040;2024-01-10T13:50:34;22.30;42.50
74359;DHT22;62792;46.236;6.040;2024-01-10T13:55:39;22.40;42.40
74359;DHT22;62792;46.236;6.040;2024-01-10T14:00:42;22.40;42.70
74359;DHT22;62792;46.236;6.040;2024-01-10T14:05:45;22.40;42.70
74359;DHT22;62792;46.236;6.040;2024-01-10T14:10:50;22.50;42.20
74359;DHT22;62792;46.236;6.040;2024-01-10T14:15:53;22.50;42.30
74359;DHT22;62792;46.236;6.040;2024-01-10T14:20:57;22.40;42.20
74359;DHT22;62792;46.236;6.040;2024-01-10T14:26:01;22.40;41.70
74359;DHT22;62792;46.236;6.040;2024-01-10T14:31:08;22.40;42.00
74359;DHT22;62792;46.236;6.040;2024-01-10T14:36:26;22.40;41.70
74359;DHT22;62792;46.236;6.040;2024-01-10T14:41:31;22.40;41.50
74359;DHT22;62792;46.236;6.040;2024-01-10T14:46:36;22.50;41.60
74359;DHT22;62792;46.236;6.040;2024-01-10T14:51:40;22.40;42.20
74359;DHT22;62792;46.236;6.040;2024-01-10T14:56:44;22.30;41.90
74359;DHT22;62792;46.236;6.040;2024-01-10T15:01:50;22.30;41.80
74359;DHT22;62792;46.236;6.040;2024-01-10T15:06:53;22.20;41.80
74359;DHT22;62792;46.236;6.040;2024-01-10T15:12:00;22.30;41.60
74359;DHT22;62792;46.236;6.040;2024-01-10T15:17:05;22.30;41.70
74359;DHT22;62792;46.236;6.040;2024-01-10T15:22:11;22.30;41.80
74359;DHT22;62792;46.236;6.040;2024-01-10T15:27:15;22.30;41.70
74359;DHT22;62792;46.236;6.040;2024-01-10T15:32:21;22.20;41.60
74359;DHT22;62792;46.236;6.040;2024-01-10T15:37:24;22.40;41.40
74359;DHT22;62792;46.236;6.040;2024-01-10T15:42:30;22.40;41.50
74359;DHT22;62792;46.236;6.040;2024-01-10T15:47:33;22.40;41.30
74359;DHT22;62792;46.236;6.040;2024-01-10T15:52:37;22.30;41.30
74359;DHT22;62792;46.236;6.040;2024-01-10T15:57:41;22.50;41.50
74359;DHT22;62792;46.236;6.040;2024-01-10T16:02:48;22.40;41.50
74359;DHT22;62792;46.236;6.040;2024-01-10T16:07:51;22.40;41.60
74359;DHT22;62792;46.236;6.040;2024-01-10T16:12:55;22.50;41.10
74359;DHT22;62792;46.236;6.040;2024-01-10T16:17:58;22.60;41.40
74359;DHT22;62792;46.236;6.040;2024-01-10T16:23:01;22.40;41.10
74359;DHT22;62792;46.236;6.040;2024-01-10T16:28:05;22.30;41.20
74359;DHT22;62792;46.236;6.040;2024-01-10T16:33:09;22.20;41.10
74359;DHT22;62792;46.236;6.040;2024-01-10T16:38:12;22.10;41.40
74359;DHT22;62792;46.236;6.040;2024-01-10T16:43:16;21.90;41.30
74359;DHT22;62792;46.236;6.040;2024-01-10T16:48:19;21.90;41.30
74359;DHT22;62792;46.236;6.040;2024-01-10T16:53:22;21.90;41.50
74359;DHT22;62792;46.236;6.040;2024-01-10T16:58:28;21.90;41.30
74359;DHT22;62792;46.236;6.040;2024-01-10T17:03:31;21.80;41.30
74359;DHT22;62792;46.236;6.040;2024-01-10T17:08:34;21.80;41.10
74359;DHT22;62792;46.236;6.040;2024-01-10T17:13:41;21.70;41.10
74359;DHT22;62792;46.236;6.040;2024-01-10T17:18:44;21.70;41.00
74359;DHT22;62792;46.236;6.040;2024-01-10T17:23:47;21.70;41.10
74359;DHT22;62792;46.236;6.040;2024-01-10T17:28:51;21.60;41.10
74359;DHT22;62792;46.236;6.040;2024-01-10T17:33:54;21.60;41.10
74359;DHT22;62792;46.236;6.040;2024-01-10T17:38:58;21.70;41.10
74359;DHT22;62792;46.236;6.040;2024-01-10T17:44:02;21.60;41.00
74359;DHT22;62792;46.236;6.040;2024-01-10T17:49:05;21.70;40.90
74359;DHT22;62792;46.236;6.040;2024-01-10T17:54:09;21.60;41.00
74359;DHT22;62792;46.236;6.040;2024-01-10T17:59:14;21.50;40.70
74359;DHT22;62792;46.236;6.040;2024-01-10T18:04:17;21.50;40.80
74359;DHT22;62792;46.236;6.040;2024-01-10T18:09:20;21.50;41.00
74359;DHT22;62792;46.236;6.040;2024-01-10T18:14:24;21.40;41.00
74359;DHT22;62792;46.236;6.040;2024-01-10T18:19:27;21.40;41.10
74359;DHT22;62792;46.236;6.040;2024-01-10T18:24:30;21.30;40.70
74359;DHT22;62792;46.236;6.040;2024-01-10T18:29:34;21.30;40.80
74359;DHT22;62792;46.236;6.040;2024-01-10T18:34:37;21.20;41.00
74359;DHT22;62792;46.236;6.040;2024-01-10T18:39:40;21.10;41.10
74359;DHT22;62792;46.236;6.040;2024-01-10T18:44:44;21.10;40.90
74359;DHT22;62792;46.236;6.040;2024-01-10T18:49:47;21.10;40.90
74359;DHT22;62792;46.236;6.040;2024-01-10T18:54:51;21.10;41.10
74359;DHT22;62792;46.236;6.040;2024-01-10T18:59:55;21.00;40.90
74359;DHT22;62792;46.236;6.040;2024-01-10T19:04:58;20.90;41.30
74359;DHT22;62792;46.236;6.040;2024-01-10T19:10:01;21.00;41.00
74359;DHT22;62792;46.236;6.040;2024-01-10T19:15:06;21.00;41.10
74359;DHT22;62792;46.236;6.040;2024-01-10T19:20:10;20.90;41.10
74359;DHT22;62792;46.236;6.040;2024-01-10T19:25:13;20.80;41.40
74359;DHT22;62792;46.236;6.040;2024-01-10T19:30:18;20.90;41.40
74359;DHT22;62792;46.236;6.040;2024-01-10T19:35:23;20.90;41.00
74359;DHT22;62792;46.236;6.040;2024-01-10T19:40:26;20.90;41.40
74359;DHT22;62792;46.236;6.040;2024-01-10T19:45:30;20.90;40.90
74359;DHT22;62792;46.236;6.040;2024-01-10T19:50:33;20.70;41.40
74359;DHT22;62792;46.236;6.040;2024-01-10T19:55:36;20.70;41.60
74359;DHT22;62792;46.236;6.040;2024-01-10T20:00:40;20.70;41.40
74359;DHT22;62792;46.236;6.040;2024-01-10T20:05:43;20.70;41.50
74359;DHT22;62792;46.236;6.040;2024-01-10T20:10:46;20.70;41.30
74359;DHT22;62792;46.236;6.040;2024-01-10T20:15:51;20.70;41.40
74359;DHT22;62792;46.236;6.040;2024-01-10T20:20:54;20.70;41.30
74359;DHT22;62792;46.236;6.040;2024-01-10T20:25:57;20.60;41.30
74359;DHT22;62792;46.236;6.040;2024-01-10T20:31:01;20.60;41.30
74359;DHT22;62792;46.236;6.040;2024-01-10T20:36:07;20.60;41.30
74359;DHT22;62792;46.236;6.040;2024-01-10T20:41:10;20.60;41.10
74359;DHT22;62792;46.236;6.040;2024-01-10T20:46:15;20.50;41.20
74359;DHT22;62792;46.236;6.040;2024-01-10T20:51:18;20.50;41.20
74359;DHT22;62792;46.236;6.040;2024-01-10T20:56:21;20.50;41.30
74359;DHT22;62792;46.236;6.040;2024-01-10T21:01:26;20.50;41.30
74359;DHT22;62792;46.236;6.040;2024-01-10T21:06:29;20.60;41.30
74359;DHT22;62792;46.236;6.040;2024-01-10T21:11:32;20.50;41.20
74359;DHT22;62792;46.236;6.040;2024-01-10T21:16:37;20.50;41.30
74359;DHT22;62792;46.236;6.040;2024-01-10T21:21:42;20.50;41.00
74359;DHT22;62792;46.236;6.040;2024-01-10T21:26:45;20.50;41.10
74359;DHT22;62792;46.236;6.040;2024-01-10T21:31:49;20.40;41.20
74359;DHT22;62792;46.236;6.040;2024-01-10T21:36:52;20.40;41.30
74359;DHT22;62792;46.236;6.040;2024-01-10T21:41:56;20.40;41.10
74359;DHT22;62792;46.236;6.040;2024-01-10T21:47:00;20.40;41.30
74359;DHT22;62792;46.236;6.040;2024-01-10T21:52:07;20.40;41.20
74359;DHT22;62792;46.236;6.040;2024-01-10T21:57:10;20.40;41.20
74359;DHT22;62792;46.236;6.040;2024-01-10T22:02:16;20.40;41.10
74359;DHT22;62792;46.236;6.040;2024-01-10T22:07:19;20.30;41.20
74359;DHT22;62792;46.236;6.040;2024-01-10T22:12:21;20.40;41.10
74359;DHT22;62792;46.236;6.040;2024-01-10T22:17:28;20.40;41.30
74359;DHT22;62792;46.236;6.040;2024-01-10T22:22:31;20.30;41.10
74359;DHT22;62792;46.236;6.040;2024-01-10T22:27:34;20.40;41.10
74359;DHT22;62792;46.236;6.040;2024-01-10T22:32:41;20.30;41.10
74359;DHT22;62792;46.236;6.040;2024-01-10T22:37:44;20.30;41.20
74359;DHT22;62792;46.236;6.040;2024-01-10T22:42:48;20.30;41.10
74359;DHT22;62792;46.236;6.040;2024-01-10T22:47:53;20.30;41.10
74359;DHT22;62792;46.236;6.040;2024-01-10T22:52:56;20.20;41.10
74359;DHT22;62792;46.236;6.040;2024-01-10T22:58:01;20.30;41.10
74359;DHT22;62792;46.236;6.040;2024-01-10T23:03:07;20.20;41.10
74359;DHT22;62792;46.236;6.040;2024-01-10T23:08:11;20.30;41.20
74359;DHT22;62792;46.236;6.040;2024-01-10T23:13:14;20.20;41.10
74359;DHT22;62792;46.236;6.040;2024-01-10T23:23:24;20.20;40.90
74359;DHT22;62792;46.236;6.040;2024-01-10T23:28:27;20.30;41.00
74359;DHT22;62792;46.236;6.040;2024-01-10T23:33:33;20.20;40.80
74359;DHT22;62792;46.236;6.040;2024-01-10T23:38:38;20.20;41.10
74359;DHT22;62792;46.236;6.040;2024-01-10T23:43:41;20.20;40.70
74359;DHT22;62792;46.236;6.040;2024-01-10T23:48:45;20.20;41.00
74359;DHT22;62792;46.236;6.040;2024-01-10T23:53:48;20.20;41.10
74359;DHT22;62792;46.236;6.040;2024-01-10T23:58:51;20.20;40.90
